sensor_id;sensor_type;location;lat;lon;timestamp;temperature;humidity
33109;HTU21D;19481;51.118;6.940;2023-02-28T00:02:49;-0.75;55.97
33109;HTU21D;19481;51.118;6.940;2023-02-28T00:07:50;-0.69;56.52
33109;HTU21D;19481;51.118;6.940;2023-02-28T00:12:54;-0.60;55.91
33109;HTU21D;19481;51.118;6.940;2023-02-28T00:17:58;-0.73;55.72
33109;HTU21D;19481;51.118;6.940;2023-02-28T00:22:59;-0.77;56.05
33109;HTU21D;19481;51.118;6.940;2023-02-28T00:28:01;-0.67;56.08
33109;HTU21D;19481;51.118;6.940;2023-02-28T00:33:04;-0.68;56.00
33109;HTU21D;19481;51.118;6.940;2023-02-28T00:38:05;-0.51;55.83
33109;HTU21D;19481;51.118;6.940;2023-02-28T00:43:07;-0.50;55.68
33109;HTU21D;19481;51.118;6.940;2023-02-28T00:48:10;-0.36;55.16
33109;HTU21D;19481;51.118;6.940;2023-02-28T00:53:11;-0.52;55.81
33109;HTU21D;19481;51.118;6.940;2023-02-28T00:58:13;-0.60;55.72
33109;HTU21D;19481;51.118;6.940;2023-02-28T01:03:17;-0.73;55.92
33109;HTU21D;19481;51.118;6.940;2023-02-28T01:08:19;-0.68;56.36
33109;HTU21D;19481;51.118;6.940;2023-02-28T01:13:21;-0.67;56.06
33109;HTU21D;19481;51.118;6.940;2023-02-28T01:18:24;-0.68;56.17
33109;HTU21D;19481;51.118;6.940;2023-02-28T01:23:26;-0.65;56.22
33109;HTU21D;19481;51.118;6.940;2023-02-28T01:28:28;-0.72;56.33
33109;HTU21D;19481;51.118;6.940;2023-02-28T01:33:31;-0.65;55.93
33109;HTU21D;19481;51.118;6.940;2023-02-28T01:38:33;-0.68;56.30
33109;HTU21D;19481;51.118;6.940;2023-02-28T01:43:54;-0.81;56.10
33109;HTU21D;19481;51.118;6.940;2023-02-28T01:49:02;-0.82;56.42
33109;HTU21D;19481;51.118;6.940;2023-02-28T01:54:08;-0.82;56.40
33109;HTU21D;19481;51.118;6.940;2023-02-28T01:59:19;-0.89;56.65
33109;HTU21D;19481;51.118;6.940;2023-02-28T02:04:27;-1.00;56.65
33109;HTU21D;19481;51.118;6.940;2023-02-28T02:09:31;-1.11;57.74
33109;HTU21D;19481;51.118;6.940;2023-02-28T02:14:53;-1.33;57.46
33109;HTU21D;19481;51.118;6.940;2023-02-28T02:20:22;-1.53;57.75
33109;HTU21D;19481;51.118;6.940;2023-02-28T02:25:32;-1.64;57.91
33109;HTU21D;19481;51.118;6.940;2023-02-28T02:30:58;-1.65;57.85
33109;HTU21D;19481;51.118;6.940;2023-02-28T02:36:07;-1.56;58.14
33109;HTU21D;19481;51.118;6.940;2023-02-28T02:41:17;-1.72;58.39
33109;HTU21D;19481;51.118;6.940;2023-02-28T02:46:23;-1.86;58.77
33109;HTU21D;19481;51.118;6.940;2023-02-28T02:51:27;-1.86;58.85
33109;HTU21D;19481;51.118;6.940;2023-02-28T02:56:33;-2.06;58.99
33109;HTU21D;19481;51.118;6.940;2023-02-28T03:01:37;-2.10;59.34
33109;HTU21D;19481;51.118;6.940;2023-02-28T03:06:41;-2.23;59.26
33109;HTU21D;19481;51.118;6.940;2023-02-28T03:11:42;-2.28;59.44
33109;HTU21D;19481;51.118;6.940;2023-02-28T03:16:54;-2.36;59.09
33109;HTU21D;19481;51.118;6.940;2023-02-28T03:22:19;-2.24;59.10
33109;HTU21D;19481;51.118;6.940;2023-02-28T03:27:23;-2.31;60.00
33109;HTU21D;19481;51.118;6.940;2023-02-28T03:32:28;-2.33;60.06
33109;HTU21D;19481;51.118;6.940;2023-02-28T03:37:35;-2.21;60.21
33109;HTU21D;19481;51.118;6.940;2023-02-28T03:42:39;-2.00;60.03
33109;HTU21D;19481;51.118;6.940;2023-02-28T03:47:46;-2.03;59.56
33109;HTU21D;19481;51.118;6.940;2023-02-28T03:52:57;-2.16;60.88
33109;HTU21D;19481;51.118;6.940;2023-02-28T03:58:04;-2.32;60.40
33109;HTU21D;19481;51.118;6.940;2023-02-28T04:03:07;-2.43;61.66
33109;HTU21D;19481;51.118;6.940;2023-02-28T04:08:11;-2.42;61.69
33109;HTU21D;19481;51.118;6.940;2023-02-28T04:13:12;-2.45;61.65
33109;HTU21D;19481;51.118;6.940;2023-02-28T04:18:14;-2.53;61.49
33109;HTU21D;19481;51.118;6.940;2023-02-28T04:23:17;-2.39;61.15
33109;HTU21D;19481;51.118;6.940;2023-02-28T04:28:18;-2.17;60.41
33109;HTU21D;19481;51.118;6.940;2023-02-28T04:33:20;-1.89;59.14
33109;HTU21D;19481;51.118;6.940;2023-02-28T04:38:23;-1.72;58.21
33109;HTU21D;19481;51.118;6.940;2023-02-28T04:43:25;-1.74;58.01
33109;HTU21D;19481;51.118;6.940;2023-02-28T04:48:28;-1.56;57.58
33109;HTU21D;19481;51.118;6.940;2023-02-28T04:53:32;-1.46;56.98
33109;HTU21D;19481;51.118;6.940;2023-02-28T04:58:34;-1.45;57.09
33109;HTU21D;19481;51.118;6.940;2023-02-28T05:03:36;-1.45;57.18
33109;HTU21D;19481;51.118;6.940;2023-02-28T05:08:39;-1.35;56.52
33109;HTU21D;19481;51.118;6.940;2023-02-28T05:13:40;-1.41;56.84
33109;HTU21D;19481;51.118;6.940;2023-02-28T05:18:42;-1.53;57.29
33109;HTU21D;19481;51.118;6.940;2023-02-28T05:23:45;-1.53;57.26
33109;HTU21D;19481;51.118;6.940;2023-02-28T05:28:47;-1.53;57.03
33109;HTU21D;19481;51.118;6.940;2023-02-28T05:33:49;-1.41;56.87
33109;HTU21D;19481;51.118;6.940;2023-02-28T05:38:52;-1.44;56.97
33109;HTU21D;19481;51.118;6.940;2023-02-28T05:43:54;-1.19;56.07
33109;HTU21D;19481;51.118;6.940;2023-02-28T05:48:56;-1.12;55.89
33109;HTU21D;19481;51.118;6.940;2023-02-28T05:54:02;-1.02;55.33
33109;HTU21D;19481;51.118;6.940;2023-02-28T05:59:03;-0.89;55.23
33109;HTU21D;19481;51.118;6.940;2023-02-28T06:04:07;-0.91;55.13
33109;HTU21D;19481;51.118;6.940;2023-02-28T06:09:10;-0.87;55.08
33109;HTU21D;19481;51.118;6.940;2023-02-28T06:14:15;-0.94;55.23
33109;HTU21D;19481;51.118;6.940;2023-02-28T06:19:17;-1.10;55.83
33109;HTU21D;19481;51.118;6.940;2023-02-28T06:24:20;-1.25;56.41
33109;HTU21D;19481;51.118;6.940;2023-02-28T06:29:22;-1.24;56.48
33109;HTU21D;19481;51.118;6.940;2023-02-28T06:34:23;-1.19;56.26
33109;HTU21D;19481;51.118;6.940;2023-02-28T06:39:26;-1.14;55.88
33109;HTU21D;19481;51.118;6.940;2023-02-28T06:44:28;-0.97;55.33
33109;HTU21D;19481;51.118;6.940;2023-02-28T06:49:35;-0.80;54.75
33109;HTU21D;19481;51.118;6.940;2023-02-28T06:54:38;-0.76;54.58
33109;HTU21D;19481;51.118;6.940;2023-02-28T06:59:40;-0.61;54.49
33109;HTU21D;19481;51.118;6.940;2023-02-28T07:04:41;-0.55;54.10
33109;HTU21D;19481;51.118;6.940;2023-02-28T07:09:46;-0.35;53.65
33109;HTU21D;19481;51.118;6.940;2023-02-28T07:14:47;-0.24;53.37
33109;HTU21D;19481;51.118;6.940;2023-02-28T07:19:49;-0.08;52.81
33109;HTU21D;19481;51.118;6.940;2023-02-28T07:24:52;0.12;52.23
33109;HTU21D;19481;51.118;6.940;2023-02-28T07:29:53;0.36;51.37
33109;HTU21D;19481;51.118;6.940;2023-02-28T07:34:55;0.58;51.11
33109;HTU21D;19481;51.118;6.940;2023-02-28T07:39:58;0.94;50.39
33109;HTU21D;19481;51.118;6.940;2023-02-28T07:45:01;5.48;40.64
33109;HTU21D;19481;51.118;6.940;2023-02-28T07:50:03;9.24;36.61
33109;HTU21D;19481;51.118;6.940;2023-02-28T07:55:08;10.75;37.44
33109;HTU21D;19481;51.118;6.940;2023-02-28T08:00:11;11.43;39.41
33109;HTU21D;19481;51.118;6.940;2023-02-28T08:05:13;12.19;40.46
33109;HTU21D;19481;51.118;6.940;2023-02-28T08:10:17;13.61;39.08
33109;HTU21D;19481;51.118;6.940;2023-02-28T08:15:18;13.67;40.17
33109;HTU21D;19481;51.118;6.940;2023-02-28T08:20:20;13.77;40.54
33109;HTU21D;19481;51.118;6.940;2023-02-28T08:25:23;13.07;39.94
33109;HTU21D;19481;51.118;6.940;2023-02-28T08:30:25;13.36;40.19
33109;HTU21D;19481;51.118;6.940;2023-02-28T08:35:26;14.39;37.81
33109;HTU21D;19481;51.118;6.940;2023-02-28T08:40:32;12.42;35.22
33109;HTU21D;19481;51.118;6.940;2023-02-28T08:45:33;9.11;47.58
33109;HTU21D;19481;51.118;6.940;2023-02-28T08:50:35;8.83;47.30
33109;HTU21D;19481;51.118;6.940;2023-02-28T08:55:38;8.73;44.96
33109;HTU21D;19481;51.118;6.940;2023-02-28T09:00:39;8.18;43.81
33109;HTU21D;19481;51.118;6.940;2023-02-28T09:05:41;7.82;44.30
33109;HTU21D;19481;51.118;6.940;2023-02-28T09:10:44;8.85;38.61
33109;HTU21D;19481;51.118;6.940;2023-02-28T09:15:46;8.96;37.46
33109;HTU21D;19481;51.118;6.940;2023-02-28T09:20:47;8.97;38.75
33109;HTU21D;19481;51.118;6.940;2023-02-28T09:25:52;8.79;36.56
33109;HTU21D;19481;51.118;6.940;2023-02-28T09:30:54;8.57;38.04
33109;HTU21D;19481;51.118;6.940;2023-02-28T09:35:58;7.56;40.31
33109;HTU21D;19481;51.118;6.940;2023-02-28T09:41:10;8.57;33.79
33109;HTU21D;19481;51.118;6.940;2023-02-28T09:46:21;8.45;31.22
33109;HTU21D;19481;51.118;6.940;2023-02-28T09:51:39;7.40;29.85
33109;HTU21D;19481;51.118;6.940;2023-02-28T09:56:45;8.09;36.83
33109;HTU21D;19481;51.118;6.940;2023-02-28T10:01:54;8.57;31.16
33109;HTU21D;19481;51.118;6.940;2023-02-28T10:07:02;7.90;35.72
33109;HTU21D;19481;51.118;6.940;2023-02-28T10:12:09;8.35;34.54
33109;HTU21D;19481;51.118;6.940;2023-02-28T10:17:16;7.93;34.55
33109;HTU21D;19481;51.118;6.940;2023-02-28T10:22:23;7.18;35.84
33109;HTU21D;19481;51.118;6.940;2023-02-28T10:27:29;6.91;38.75
33109;HTU21D;19481;51.118;6.940;2023-02-28T10:32:34;7.28;38.04
33109;HTU21D;19481;51.118;6.940;2023-02-28T10:37:37;8.60;34.93
33109;HTU21D;19481;51.118;6.940;2023-02-28T10:42:40;8.34;35.92
33109;HTU21D;19481;51.118;6.940;2023-02-28T10:47:51;7.65;32.31
33109;HTU21D;19481;51.118;6.940;2023-02-28T10:52:54;9.24;34.65
33109;HTU21D;19481;51.118;6.940;2023-02-28T10:57:57;9.57;34.54
33109;HTU21D;19481;51.118;6.940;2023-02-28T11:02:59;9.94;34.50
33109;HTU21D;19481;51.118;6.940;2023-02-28T11:08:06;10.15;30.99
33109;HTU21D;19481;51.118;6.940;2023-02-28T11:13:16;9.18;30.64
33109;HTU21D;19481;51.118;6.940;2023-02-28T11:18:22;9.05;33.18
33109;HTU21D;19481;51.118;6.940;2023-02-28T11:23:27;9.38;34.50
33109;HTU21D;19481;51.118;6.940;2023-02-28T11:28:33;9.08;31.94
33109;HTU21D;19481;51.118;6.940;2023-02-28T11:33:41;9.82;32.83
33109;HTU21D;19481;51.118;6.940;2023-02-28T11:38:45;9.37;34.73
33109;HTU21D;19481;51.118;6.940;2023-02-28T11:44:01;9.90;26.33
33109;HTU21D;19481;51.118;6.940;2023-02-28T11:49:16;9.36;30.24
33109;HTU21D;19481;51.118;6.940;2023-02-28T11:54:53;9.63;26.88
33109;HTU21D;19481;51.118;6.940;2023-02-28T12:00:07;8.87;32.02
33109;HTU21D;19481;51.118;6.940;2023-02-28T12:05:22;8.15;33.52
33109;HTU21D;19481;51.118;6.940;2023-02-28T12:10:26;8.15;36.46
33109;HTU21D;19481;51.118;6.940;2023-02-28T12:21:09;8.20;31.96
33109;HTU21D;19481;51.118;6.940;2023-02-28T12:26:16;7.31;34.79
33109;HTU21D;19481;51.118;6.940;2023-02-28T12:31:24;6.70;36.92
33109;HTU21D;19481;51.118;6.940;2023-02-28T12:36:28;6.76;36.49
33109;HTU21D;19481;51.118;6.940;2023-02-28T12:41:37;6.74;36.30
33109;HTU21D;19481;51.118;6.940;2023-02-28T12:46:44;6.46;36.52
33109;HTU21D;19481;51.118;6.940;2023-02-28T12:51:49;6.74;35.82
33109;HTU21D;19481;51.118;6.940;2023-02-28T12:56:56;6.93;32.62
33109;HTU21D;19481;51.118;6.940;2023-02-28T13:02:15;6.72;33.21
33109;HTU21D;19481;51.118;6.940;2023-02-28T13:07:59;6.53;28.58
33109;HTU21D;19481;51.118;6.940;2023-02-28T13:13:04;6.44;35.54
33109;HTU21D;19481;51.118;6.940;2023-02-28T13:18:31;6.07;30.25
33109;HTU21D;19481;51.118;6.940;2023-02-28T13:23:59;6.05;30.70
33109;HTU21D;19481;51.118;6.940;2023-02-28T13:29:04;6.38;33.13
33109;HTU21D;19481;51.118;6.940;2023-02-28T13:34:24;6.67;33.44
33109;HTU21D;19481;51.118;6.940;2023-02-28T13:39:46;6.37;31.16
33109;HTU21D;19481;51.118;6.940;2023-02-28T13:45:23;6.63;30.22
33109;HTU21D;19481;51.118;6.940;2023-02-28T13:50:32;6.71;33.76
33109;HTU21D;19481;51.118;6.940;2023-02-28T13:55:37;6.75;34.77
33109;HTU21D;19481;51.118;6.940;2023-02-28T14:00:59;6.99;31.77
33109;HTU21D;19481;51.118;6.940;2023-02-28T14:06:16;7.13;30.59
33109;HTU21D;19481;51.118;6.940;2023-02-28T14:11:26;6.86;34.13
33109;HTU21D;19481;51.118;6.940;2023-02-28T14:16:37;6.96;30.89
33109;HTU21D;19481;51.118;6.940;2023-02-28T14:21:51;6.96;33.20
33109;HTU21D;19481;51.118;6.940;2023-02-28T14:27:22;11.05;24.25
33109;HTU21D;19481;51.118;6.940;2023-02-28T14:32:30;8.76;31.35
33109;HTU21D;19481;51.118;6.940;2023-02-28T14:37:38;8.30;32.05
33109;HTU21D;19481;51.118;6.940;2023-02-28T14:42:47;9.93;29.30
33109;HTU21D;19481;51.118;6.940;2023-02-28T14:47:50;11.67;25.27
33109;HTU21D;19481;51.118;6.940;2023-02-28T14:52:54;9.66;30.24
33109;HTU21D;19481;51.118;6.940;2023-02-28T14:57:57;8.45;33.39
33109;HTU21D;19481;51.118;6.940;2023-02-28T15:03:01;8.20;34.11
33109;HTU21D;19481;51.118;6.940;2023-02-28T15:08:19;7.94;35.10
33109;HTU21D;19481;51.118;6.940;2023-02-28T15:13:21;7.72;35.34
33109;HTU21D;19481;51.118;6.940;2023-02-28T15:18:29;8.01;34.29
33109;HTU21D;19481;51.118;6.940;2023-02-28T15:23:36;7.94;35.03
33109;HTU21D;19481;51.118;6.940;2023-02-28T15:28:38;7.89;35.15
33109;HTU21D;19481;51.118;6.940;2023-02-28T15:33:52;7.86;32.12
33109;HTU21D;19481;51.118;6.940;2023-02-28T15:38:55;7.72;35.32
33109;HTU21D;19481;51.118;6.940;2023-02-28T15:44:23;7.63;29.64
33109;HTU21D;19481;51.118;6.940;2023-02-28T15:49:28;7.55;35.73
33109;HTU21D;19481;51.118;6.940;2023-02-28T15:54:33;7.46;35.42
33109;HTU21D;19481;51.118;6.940;2023-02-28T15:59:37;7.31;35.83
33109;HTU21D;19481;51.118;6.940;2023-02-28T16:04:57;7.20;33.55
33109;HTU21D;19481;51.118;6.940;2023-02-28T16:10:00;7.04;36.43
33109;HTU21D;19481;51.118;6.940;2023-02-28T16:15:07;6.93;36.84
33109;HTU21D;19481;51.118;6.940;2023-02-28T16:20:13;6.71;37.12
33109;HTU21D;19481;51.118;6.940;2023-02-28T16:25:19;6.45;37.79
33109;HTU21D;19481;51.118;6.940;2023-02-28T16:30:23;6.16;37.86
33109;HTU21D;19481;51.118;6.940;2023-02-28T16:35:25;5.99;38.51
33109;HTU21D;19481;51.118;6.940;2023-02-28T16:40:33;5.87;38.39
33109;HTU21D;19481;51.118;6.940;2023-02-28T16:45:35;5.72;36.30
33109;HTU21D;19481;51.118;6.940;2023-02-28T16:50:36;5.55;38.88
33109;HTU21D;19481;51.118;6.940;2023-02-28T16:55:40;5.42;39.10
33109;HTU21D;19481;51.118;6.940;2023-02-28T17:00:42;5.30;39.32
33109;HTU21D;19481;51.118;6.940;2023-02-28T17:05:43;5.18;39.56
33109;HTU21D;19481;51.118;6.940;2023-02-28T17:10:47;5.09;39.90
33109;HTU21D;19481;51.118;6.940;2023-02-28T17:15:49;4.94;40.03
33109;HTU21D;19481;51.118;6.940;2023-02-28T17:20:50;4.83;40.27
33109;HTU21D;19481;51.118;6.940;2023-02-28T17:25:53;4.73;40.53
33109;HTU21D;19481;51.118;6.940;2023-02-28T17:30:55;4.63;40.64
33109;HTU21D;19481;51.118;6.940;2023-02-28T17:35:57;4.58;40.74
33109;HTU21D;19481;51.118;6.940;2023-02-28T17:40:59;4.46;41.01
33109;HTU21D;19481;51.118;6.940;2023-02-28T17:46:01;4.41;41.19
33109;HTU21D;19481;51.118;6.940;2023-02-28T17:51:05;4.30;41.45
33109;HTU21D;19481;51.118;6.940;2023-02-28T17:56:11;4.22;41.62
33109;HTU21D;19481;51.118;6.940;2023-02-28T18:01:13;4.12;41.95
33109;HTU21D;19481;51.118;6.940;2023-02-28T18:06:17;4.04;42.07
33109;HTU21D;19481;51.118;6.940;2023-02-28T18:11:21;4.02;42.07
33109;HTU21D;19481;51.118;6.940;2023-02-28T18:16:23;3.97;42.27
33109;HTU21D;19481;51.118;6.940;2023-02-28T18:21:25;3.91;42.37
33109;HTU21D;19481;51.118;6.940;2023-02-28T18:26:28;3.80;42.71
33109;HTU21D;19481;51.118;6.940;2023-02-28T18:31:29;3.71;43.06
33109;HTU21D;19481;51.118;6.940;2023-02-28T18:36:32;3.70;43.02
33109;HTU21D;19481;51.118;6.940;2023-02-28T18:41:35;3.57;43.26
33109;HTU21D;19481;51.118;6.940;2023-02-28T18:46:37;3.47;43.57
33109;HTU21D;19481;51.118;6.940;2023-02-28T18:51:38;3.41;43.77
33109;HTU21D;19481;51.118;6.940;2023-02-28T18:56:45;3.41;43.68
33109;HTU21D;19481;51.118;6.940;2023-02-28T19:01:47;3.24;44.10
33109;HTU21D;19481;51.118;6.940;2023-02-28T19:06:49;3.18;44.28
33109;HTU21D;19481;51.118;6.940;2023-02-28T19:11:51;3.05;44.50
33109;HTU21D;19481;51.118;6.940;2023-02-28T19:16:53;2.95;44.81
33109;HTU21D;19481;51.118;6.940;2023-02-28T19:21:55;2.87;45.08
33109;HTU21D;19481;51.118;6.940;2023-02-28T19:26:58;2.80;45.10
33109;HTU21D;19481;51.118;6.940;2023-02-28T19:31:59;2.67;45.51
33109;HTU21D;19481;51.118;6.940;2023-02-28T19:37:03;2.56;45.83
33109;HTU21D;19481;51.118;6.940;2023-02-28T19:42:06;2.45;46.01
33109;HTU21D;19481;51.118;6.940;2023-02-28T19:47:08;2.37;46.19
33109;HTU21D;19481;51.118;6.940;2023-02-28T19:52:10;2.35;46.31
33109;HTU21D;19481;51.118;6.940;2023-02-28T19:57:13;2.25;46.43
33109;HTU21D;19481;51.118;6.940;2023-02-28T20:02:15;2.09;46.84
33109;HTU21D;19481;51.118;6.940;2023-02-28T20:07:18;2.00;47.12
33109;HTU21D;19481;51.118;6.940;2023-02-28T20:12:21;1.78;47.65
33109;HTU21D;19481;51.118;6.940;2023-02-28T20:17:23;1.84;47.45
33109;HTU21D;19481;51.118;6.940;2023-02-28T20:22:25;1.66;47.89
33109;HTU21D;19481;51.118;6.940;2023-02-28T20:27:28;1.39;48.34
33109;HTU21D;19481;51.118;6.940;2023-02-28T20:32:31;1.32;48.80
33109;HTU21D;19481;51.118;6.940;2023-02-28T20:37:33;1.46;48.32
33109;HTU21D;19481;51.118;6.940;2023-02-28T20:42:36;1.25;48.51
33109;HTU21D;19481;51.118;6.940;2023-02-28T20:47:38;0.99;49.50
33109;HTU21D;19481;51.118;6.940;2023-02-28T20:52:41;0.80;49.56
33109;HTU21D;19481;51.118;6.940;2023-02-28T20:57:45;0.61;50.00
33109;HTU21D;19481;51.118;6.940;2023-02-28T21:02:46;0.50;50.49
33109;HTU21D;19481;51.118;6.940;2023-02-28T21:07:48;0.40;50.47
33109;HTU21D;19481;51.118;6.940;2023-02-28T21:12:51;0.24;50.40
33109;HTU21D;19481;51.118;6.940;2023-02-28T21:17:56;0.16;50.83
33109;HTU21D;19481;51.118;6.940;2023-02-28T21:22:58;0.10;51.09
33109;HTU21D;19481;51.118;6.940;2023-02-28T21:28:01;0.15;50.65
33109;HTU21D;19481;51.118;6.940;2023-02-28T21:33:03;0.29;50.81
33109;HTU21D;19481;51.118;6.940;2023-02-28T21:38:04;0.27;51.17
33109;HTU21D;19481;51.118;6.940;2023-02-28T21:43:07;0.28;50.81
33109;HTU21D;19481;51.118;6.940;2023-02-28T21:48:09;0.23;51.38
33109;HTU21D;19481;51.118;6.940;2023-02-28T21:53:11;0.24;51.07
33109;HTU21D;19481;51.118;6.940;2023-02-28T21:58:14;0.17;51.32
33109;HTU21D;19481;51.118;6.940;2023-02-28T22:03:15;0.13;51.54
33109;HTU21D;19481;51.118;6.940;2023-02-28T22:08:17;0.07;51.75
33109;HTU21D;19481;51.118;6.940;2023-02-28T22:13:20;-0.13;51.66
33109;HTU21D;19481;51.118;6.940;2023-02-28T22:18:21;-0.20;51.98
33109;HTU21D;19481;51.118;6.940;2023-02-28T22:23:23;-0.28;52.65
33109;HTU21D;19481;51.118;6.940;2023-02-28T22:28:27;-0.40;52.12
33109;HTU21D;19481;51.118;6.940;2023-02-28T22:33:29;-0.44;52.78
33109;HTU21D;19481;51.118;6.940;2023-02-28T22:38:31;-0.47;52.47
33109;HTU21D;19481;51.118;6.940;2023-02-28T22:43:36;-0.53;52.40
33109;HTU21D;19481;51.118;6.940;2023-02-28T22:48:38;-0.60;53.46
33109;HTU21D;19481;51.118;6.940;2023-02-28T22:53:42;-0.76;53.53
33109;HTU21D;19481;51.118;6.940;2023-02-28T22:58:48;-0.83;53.33
33109;HTU21D;19481;51.118;6.940;2023-02-28T23:03:51;-0.87;53.87
33109;HTU21D;19481;51.118;6.940;2023-02-28T23:08:55;-0.89;54.08
33109;HTU21D;19481;51.118;6.940;2023-02-28T23:13:58;-1.05;54.25
33109;HTU21D;19481;51.118;6.940;2023-02-28T23:19:02;-1.05;53.80
33109;HTU21D;19481;51.118;6.940;2023-02-28T23:24:05;-1.04;53.31
33109;HTU21D;19481;51.118;6.940;2023-02-28T23:29:11;-1.12;53.48
33109;HTU21D;19481;51.118;6.940;2023-02-28T23:34:14;-1.21;53.68
33109;HTU21D;19481;51.118;6.940;2023-02-28T23:39:17;-1.20;53.75
33109;HTU21D;19481;51.118;6.940;2023-02-28T23:44:20;-1.21;53.69
33109;HTU21D;19481;51.118;6.940;2023-02-28T23:49:22;-1.27;54.11
33109;HTU21D;19481;51.118;6.940;2023-02-28T23:54:23;-1.36;55.10
33109;HTU21D;19481;51.118;6.940;2023-02-28T23:59:26;-1.46;55.50
